Time;durP1;ratioP1;P1;durP2;ratioP2;P2;SDS_P1;SDS_P2;PMS_P1;PMS_P2;Temp;Humidity;BMP_temperature;BMP_pressure;BME280_temperature;BME280_humidity;BME280_pressure;Samples;Min_cycle;Max_cycle;Signal;HPM_P1;HPM_P2
2023/12/07 00:00:37;;;;;;;;;23.67;19.00;;;;;;;;5079362;27;45301;-77
2023/12/07 00:03:02;;;;;;;;;25.33;23.33;;;;;;;;5079886;27;45324;-77
2023/12/07 00:05:27;;;;;;;;;21.67;21.00;;;;;;;;5095320;27;47597;-76
2023/12/07 00:07:53;;;;;;;;;23.00;19.00;;;;;;;;5095210;27;45465;-76
2023/12/07 00:10:18;;;;;;;;;23.67;22.67;;;;;;;;5079490;27;45424;-77
2023/12/07 00:12:43;;;;;;;;;26.67;25.00;;;;;;;;5079263;27;45479;-76
2023/12/07 00:15:08;;;;;;;;;30.00;23.33;;;;;;;;5079334;27;45269;-78
2023/12/07 00:17:33;;;;;;;;;28.00;24.00;;;;;;;;5079494;28;45311;-77
2023/12/07 00:19:59;;;;;;;;;21.67;18.67;;;;;;;;5079344;27;45332;-76
2023/12/07 00:22:26;;;;;;;;;24.33;20.00;;;;;;;;5094919;27;46372;-77
2023/12/07 00:24:51;;;;;;;;;20.00;18.33;;;;;;;;5079359;27;46559;-77
2023/12/07 00:27:16;;;;;;;;;31.00;24.00;;;;;;;;5094856;27;45613;-77
2023/12/07 00:29:41;;;;;;;;;27.00;21.00;;;;;;;;5094862;27;45464;-76
2023/12/07 00:32:06;;;;;;;;;25.33;20.67;;;;;;;;5079445;27;45347;-77
2023/12/07 00:34:32;;;;;;;;;20.33;18.67;;;;;;;;5079137;27;45513;-77
2023/12/07 00:36:57;;;;;;;;;23.33;23.33;;;;;;;;5093911;27;45307;-77
2023/12/07 00:39:22;;;;;;;;;27.67;22.67;;;;;;;;5094899;27;45539;-76
2023/12/07 00:41:47;;;;;;;;;25.00;24.00;;;;;;;;5078970;27;45362;-77
2023/12/07 00:44:13;;;;;;;;;25.00;20.67;;;;;;;;5079155;27;45380;-77
2023/12/07 00:46:38;;;;;;;;;27.33;24.67;;;;;;;;5094669;27;45398;-76
2023/12/07 00:49:03;;;;;;;;;23.67;19.00;;;;;;;;5079013;27;45341;-76
2023/12/07 00:51:28;;;;;;;;;20.00;19.67;;;;;;;;5079100;27;45534;-77
2023/12/07 00:53:54;;;;;;;;;19.00;19.00;;;;;;;;5094626;27;47043;-78
2023/12/07 00:56:19;;;;;;;;;26.00;23.00;;;;;;;;5078309;27;45366;-76
2023/12/07 00:58:44;;;;;;;;;22.33;20.33;;;;;;;;5078758;28;45413;-76
2023/12/07 01:01:09;;;;;;;;;22.25;21.00;;;;;;;;5094702;27;47382;-77
2023/12/07 01:03:34;;;;;;;;;16.67;16.67;;;;;;;;5078303;27;46529;-76
2023/12/07 01:05:59;;;;;;;;;23.67;20.00;;;;;;;;5079110;27;45290;-76
2023/12/07 01:08:25;;;;;;;;;25.67;22.67;;;;;;;;5079136;27;45567;-77
2023/12/07 01:10:50;;;;;;;;;22.33;19.33;;;;;;;;5078597;27;45495;-77
2023/12/07 01:13:15;;;;;;;;;23.33;20.67;;;;;;;;5079684;27;45586;-76
2023/12/07 01:15:40;;;;;;;;;23.67;21.67;;;;;;;;5097847;27;45833;-77
2023/12/07 01:18:05;;;;;;;;;25.50;24.25;;;;;;;;5082640;27;45390;-77
2023/12/07 01:20:30;;;;;;;;;26.33;23.67;;;;;;;;5081743;27;45470;-77
2023/12/07 01:22:56;;;;;;;;;25.00;20.00;;;;;;;;5081771;27;45378;-76
2023/12/07 01:25:21;;;;;;;;;24.33;22.67;;;;;;;;5081634;28;45325;-76
2023/12/07 01:27:46;;;;;;;;;19.67;19.67;;;;;;;;5082044;28;45461;-77
2023/12/07 01:30:12;;;;;;;;;18.67;17.33;;;;;;;;5063177;28;46199;-77
2023/12/07 01:32:37;;;;;;;;;28.00;22.00;;;;;;;;5080433;28;47273;-77
2023/12/07 01:35:02;;;;;;;;;18.00;18.00;;;;;;;;5080476;28;45204;-77
2023/12/07 01:37:29;;;;;;;;;18.67;17.33;;;;;;;;5063906;28;45600;-76
2023/12/07 01:39:54;;;;;;;;;17.00;17.00;;;;;;;;5081453;28;45271;-76
2023/12/07 01:42:19;;;;;;;;;25.67;21.33;;;;;;;;5081583;28;45296;-77
2023/12/07 01:44:44;;;;;;;;;21.33;18.67;;;;;;;;5081702;28;45314;-77
2023/12/07 01:47:10;;;;;;;;;26.00;23.33;;;;;;;;5080472;28;45268;-77
2023/12/07 01:49:35;;;;;;;;;23.00;20.00;;;;;;;;5081119;28;45271;-76
2023/12/07 01:52:02;;;;;;;;;21.33;18.67;;;;;;;;5081419;28;45326;-77
2023/12/07 01:54:27;;;;;;;;;20.67;18.00;;;;;;;;5081633;28;45340;-76
2023/12/07 01:56:52;;;;;;;;;25.67;23.00;;;;;;;;5081188;28;45323;-76
2023/12/07 01:59:17;;;;;;;;;21.67;21.67;;;;;;;;5081368;27;45373;-76
2023/12/07 02:01:43;;;;;;;;;17.33;16.67;;;;;;;;5081338;27;46150;-77
2023/12/07 02:04:09;;;;;;;;;17.00;16.00;;;;;;;;5081468;27;45297;-77
2023/12/07 02:06:34;;;;;;;;;21.00;18.67;;;;;;;;5081645;27;45397;-76
2023/12/07 02:08:59;;;;;;;;;18.67;16.67;;;;;;;;5096955;27;46498;-77
2023/12/07 02:11:24;;;;;;;;;21.67;19.33;;;;;;;;5096620;27;47240;-77
2023/12/07 02:13:54;;;;;;;;;23.00;16.33;;;;;;;;5096869;27;45276;-76
2023/12/07 02:16:23;;;;;;;;;20.00;18.00;;;;;;;;5081282;27;45352;-77
2023/12/07 02:18:54;;;;;;;;;20.00;17.67;;;;;;;;5080951;27;45444;-77
2023/12/07 02:21:27;;;;;;;;;17.67;17.00;;;;;;;;5080841;27;45257;-77
2023/12/07 02:23:53;;;;;;;;;20.33;18.33;;;;;;;;5079457;28;46024;-76
2023/12/07 02:26:20;;;;;;;;;19.33;17.33;;;;;;;;5080858;28;45379;-77
2023/12/07 02:28:45;;;;;;;;;19.67;16.67;;;;;;;;5096715;27;47072;-77
2023/12/07 02:31:10;;;;;;;;;18.67;18.67;;;;;;;;5080741;27;45436;-77
2023/12/07 02:33:35;;;;;;;;;17.67;14.33;;;;;;;;5081027;27;45321;-77
2023/12/07 02:36:01;;;;;;;;;21.67;18.67;;;;;;;;5081203;28;45480;-77
2023/12/07 02:38:26;;;;;;;;;22.33;17.33;;;;;;;;5080726;27;45432;-76
2023/12/07 02:40:53;;;;;;;;;18.33;18.00;;;;;;;;5096344;27;47254;-77
2023/12/07 02:43:18;;;;;;;;;16.33;16.33;;;;;;;;5096470;27;46116;-77
2023/12/07 02:45:43;;;;;;;;;19.00;17.67;;;;;;;;5096668;27;45393;-77
2023/12/07 02:48:09;;;;;;;;;25.33;21.67;;;;;;;;5080478;27;45264;-76
2023/12/07 02:50:34;;;;;;;;;18.67;18.00;;;;;;;;5080802;27;46309;-76
2023/12/07 02:52:59;;;;;;;;;18.67;17.33;;;;;;;;5080508;27;45330;-77
2023/12/07 02:55:24;;;;;;;;;20.00;16.00;;;;;;;;5079192;28;45374;-76
2023/12/07 02:57:50;;;;;;;;;20.00;17.67;;;;;;;;5087625;27;47254;-77
2023/12/07 03:00:16;;;;;;;;;18.00;17.33;;;;;;;;5080262;28;46054;-76
2023/12/07 03:02:42;;;;;;;;;19.67;19.33;;;;;;;;5080391;28;45272;-76
2023/12/07 03:05:07;;;;;;;;;18.00;16.33;;;;;;;;5061955;28;45291;-77
2023/12/07 03:07:33;;;;;;;;;13.00;11.67;;;;;;;;5060829;28;46380;-76
2023/12/07 03:09:58;;;;;;;;;17.33;17.00;;;;;;;;5080046;28;45241;-77
2023/12/07 03:12:23;;;;;;;;;14.33;14.33;;;;;;;;5080291;28;45425;-76
2023/12/07 03:14:48;;;;;;;;;22.00;17.00;;;;;;;;5080464;28;45343;-76
2023/12/07 03:17:14;;;;;;;;;21.67;19.00;;;;;;;;5061873;28;47362;-77
2023/12/07 03:19:40;;;;;;;;;16.67;14.67;;;;;;;;5079915;28;45241;-76
2023/12/07 03:22:06;;;;;;;;;19.67;16.00;;;;;;;;5080170;28;45221;-77
2023/12/07 03:24:32;;;;;;;;;16.33;15.33;;;;;;;;5080182;28;45334;-76
2023/12/07 03:26:57;;;;;;;;;20.33;17.00;;;;;;;;5079753;28;45381;-77
2023/12/07 03:29:22;;;;;;;;;17.00;16.00;;;;;;;;5079818;28;45559;-76
2023/12/07 03:31:47;;;;;;;;;18.00;15.00;;;;;;;;5080302;28;45351;-77
2023/12/07 03:34:15;;;;;;;;;22.00;16.33;;;;;;;;5080236;28;45245;-77
2023/12/07 03:36:40;;;;;;;;;23.67;19.00;;;;;;;;5079485;28;45369;-77
2023/12/07 03:39:05;;;;;;;;;16.33;14.67;;;;;;;;5079794;28;45341;-76
2023/12/07 03:41:31;;;;;;;;;18.33;17.67;;;;;;;;5079670;28;45350;-76
2023/12/07 03:43:56;;;;;;;;;25.00;19.67;;;;;;;;5061853;28;45355;-77
2023/12/07 03:46:21;;;;;;;;;20.33;17.67;;;;;;;;5079800;28;45347;-77
2023/12/07 03:48:46;;;;;;;;;15.50;13.75;;;;;;;;5079567;28;46227;-76
2023/12/07 03:51:16;;;;;;;;;18.67;16.67;;;;;;;;5079845;28;45301;-77
2023/12/07 03:53:41;;;;;;;;;15.00;13.00;;;;;;;;5080003;28;45220;-76
2023/12/07 03:56:06;;;;;;;;;16.67;16.67;;;;;;;;5079473;28;45184;-77
2023/12/07 03:58:31;;;;;;;;;16.67;16.67;;;;;;;;5092519;27;46951;-77
2023/12/07 04:13:04;;;;;;;;;16.33;14.67;;;;;;;;5076978;28;68713;-77
2023/12/07 04:15:29;;;;;;;;;20.67;16.33;;;;;;;;5095233;27;46014;-76
2023/12/07 04:17:54;;;;;;;;;26.00;17.00;;;;;;;;5079428;27;45722;-77
2023/12/07 04:20:19;;;;;;;;;17.33;15.00;;;;;;;;5079259;27;45486;-76
2023/12/07 04:22:45;;;;;;;;;17.00;15.67;;;;;;;;5079824;27;45271;-77
2023/12/07 04:25:10;;;;;;;;;16.00;13.33;;;;;;;;5079191;27;45592;-77
2023/12/07 04:27:35;;;;;;;;;20.00;16.67;;;;;;;;5079419;27;45403;-76
2023/12/07 04:30:01;;;;;;;;;17.00;16.33;;;;;;;;5079177;27;45282;-76
2023/12/07 04:32:26;;;;;;;;;16.00;15.67;;;;;;;;5079612;28;45317;-77
2023/12/07 04:34:51;;;;;;;;;21.25;16.50;;;;;;;;5095133;27;46242;-76
2023/12/07 04:37:16;;;;;;;;;14.67;14.67;;;;;;;;5079322;27;45610;-76
2023/12/07 04:39:42;;;;;;;;;15.00;14.33;;;;;;;;5094674;27;45180;-76
2023/12/07 04:42:07;;;;;;;;;19.33;16.67;;;;;;;;5079367;27;45277;-76
2023/12/07 04:44:32;;;;;;;;;19.33;18.67;;;;;;;;5095087;27;45625;-76
2023/12/07 04:46:57;;;;;;;;;14.33;14.33;;;;;;;;5079058;27;46337;-76
2023/12/07 04:49:23;;;;;;;;;17.33;17.00;;;;;;;;5097335;27;45328;-76
2023/12/07 04:51:48;;;;;;;;;19.00;16.67;;;;;;;;5082953;27;45607;-76
2023/12/07 04:54:14;;;;;;;;;16.00;14.33;;;;;;;;5082587;28;45285;-77
2023/12/07 04:56:40;;;;;;;;;19.33;17.00;;;;;;;;5080904;28;47474;-76
2023/12/07 04:59:05;;;;;;;;;15.33;15.33;;;;;;;;5082438;28;45280;-77
2023/12/07 05:01:30;;;;;;;;;24.33;18.67;;;;;;;;5064314;28;45367;-77
2023/12/07 05:03:55;;;;;;;;;16.67;14.67;;;;;;;;5064070;28;45328;-77
2023/12/07 05:06:21;;;;;;;;;18.67;15.33;;;;;;;;5082384;28;46208;-76
2023/12/07 05:08:46;;;;;;;;;16.67;15.00;;;;;;;;5082516;28;45343;-77
2023/12/07 05:11:11;;;;;;;;;18.00;17.33;;;;;;;;5080945;28;45485;-77
2023/12/07 05:13:36;;;;;;;;;14.33;13.33;;;;;;;;5082061;28;45398;-77
2023/12/07 05:16:01;;;;;;;;;18.67;16.67;;;;;;;;5063317;28;47067;-76
2023/12/07 05:18:26;;;;;;;;;15.33;15.33;;;;;;;;5081401;28;45386;-77
2023/12/07 05:20:52;;;;;;;;;20.75;18.00;;;;;;;;5081304;28;45354;-76
2023/12/07 05:23:17;;;;;;;;;16.00;13.33;;;;;;;;5080531;28;46427;-77
2023/12/07 05:25:42;;;;;;;;;18.00;16.67;;;;;;;;5081800;28;46273;-76
2023/12/07 05:28:08;;;;;;;;;17.00;14.67;;;;;;;;5081969;28;45244;-76
2023/12/07 05:30:33;;;;;;;;;15.67;14.33;;;;;;;;5063430;28;45334;-77
2023/12/07 05:32:58;;;;;;;;;15.33;15.33;;;;;;;;5081867;28;45247;-77
2023/12/07 05:35:23;;;;;;;;;13.00;13.00;;;;;;;;5080244;28;47148;-78
2023/12/07 05:37:48;;;;;;;;;14.67;11.67;;;;;;;;5063737;28;46229;-77
2023/12/07 05:40:14;;;;;;;;;17.00;16.00;;;;;;;;5081659;28;45332;-77
2023/12/07 05:42:39;;;;;;;;;16.33;12.67;;;;;;;;5081750;28;45358;-77
2023/12/07 05:45:06;;;;;;;;;20.67;14.67;;;;;;;;5081018;28;46205;-76
2023/12/07 05:47:31;;;;;;;;;16.67;14.67;;;;;;;;5062732;28;45359;-77
2023/12/07 05:49:58;;;;;;;;;18.67;14.67;;;;;;;;5081200;28;45319;-77
2023/12/07 05:52:23;;;;;;;;;14.00;13.33;;;;;;;;5080161;28;46417;-76
2023/12/07 05:54:48;;;;;;;;;18.67;14.00;;;;;;;;5081319;28;45377;-76
2023/12/07 05:57:14;;;;;;;;;15.00;14.67;;;;;;;;5081416;28;45322;-76
2023/12/07 05:59:39;;;;;;;;;8.00;8.00;;;;;;;;5081184;27;45309;-76
2023/12/07 06:02:05;;;;;;;;;17.33;15.67;;;;;;;;5081356;27;45322;-77
2023/12/07 06:04:30;;;;;;;;;12.33;12.33;;;;;;;;5081259;27;46172;-76
2023/12/07 06:06:55;;;;;;;;;16.67;15.00;;;;;;;;5081400;27;45309;-77
2023/12/07 06:09:21;;;;;;;;;19.33;14.33;;;;;;;;5081339;28;45253;-76
2023/12/07 06:11:46;;;;;;;;;19.00;16.00;;;;;;;;5079613;28;45862;-78
2023/12/07 06:14:11;;;;;;;;;19.33;15.33;;;;;;;;5081035;27;46118;-77
2023/12/07 06:16:36;;;;;;;;;16.00;15.33;;;;;;;;5081293;28;45388;-77
2023/12/07 06:19:02;;;;;;;;;14.00;12.67;;;;;;;;5097018;27;45314;-76
2023/12/07 06:21:29;;;;;;;;;14.67;13.00;;;;;;;;5080888;27;45389;-78
2023/12/07 06:23:54;;;;;;;;;11.67;11.00;;;;;;;;5080976;27;46322;-77
2023/12/07 06:26:19;;;;;;;;;15.75;14.75;;;;;;;;5080867;27;45291;-77
2023/12/07 06:28:45;;;;;;;;;14.67;14.67;;;;;;;;5096959;27;45383;-76
2023/12/07 06:31:10;;;;;;;;;14.00;12.67;;;;;;;;5079036;28;46233;-77
2023/12/07 06:33:35;;;;;;;;;14.67;12.33;;;;;;;;5079952;27;46128;-78
2023/12/07 06:36:03;;;;;;;;;11.33;11.00;;;;;;;;5080572;28;45476;-76
2023/12/07 06:38:28;;;;;;;;;17.00;15.67;;;;;;;;5080853;28;45204;-77
2023/12/07 06:40:53;;;;;;;;;19.00;15.67;;;;;;;;5079071;28;45225;-78
2023/12/07 06:43:18;;;;;;;;;18.33;15.00;;;;;;;;5080680;28;45464;-78
2023/12/07 06:45:43;;;;;;;;;16.00;15.00;;;;;;;;5080502;28;45417;-77
2023/12/07 06:48:08;;;;;;;;;13.67;12.00;;;;;;;;5062146;28;45304;-78
2023/12/07 06:50:34;;;;;;;;;14.33;14.33;;;;;;;;5078715;28;45783;-77
2023/12/07 06:52:59;;;;;;;;;21.33;14.33;;;;;;;;5079183;28;47141;-77
2023/12/07 06:55:24;;;;;;;;;14.00;14.00;;;;;;;;5080335;28;45240;-79
2023/12/07 06:57:49;;;;;;;;;14.67;14.00;;;;;;;;5080782;28;45298;-79
2023/12/07 07:00:15;;;;;;;;;16.33;15.00;;;;;;;;5080532;27;45259;-79
2023/12/07 07:02:40;;;;;;;;;17.67;16.67;;;;;;;;5080371;27;45259;-79
2023/12/07 07:05:06;;;;;;;;;14.00;13.33;;;;;;;;5080381;27;45250;-79
2023/12/07 07:07:31;;;;;;;;;16.67;16.00;;;;;;;;5080601;27;45355;-79
2023/12/07 07:09:57;;;;;;;;;16.00;15.33;;;;;;;;5079983;27;45313;-80
2023/12/07 07:12:22;;;;;;;;;13.33;10.67;;;;;;;;5079446;28;45592;-79
2023/12/07 07:14:48;;;;;;;;;14.33;14.00;;;;;;;;5096097;27;45373;-77
2023/12/07 07:17:13;;;;;;;;;15.67;11.00;;;;;;;;5086619;27;45362;-79
2023/12/07 07:19:38;;;;;;;;;13.67;13.67;;;;;;;;5074760;28;45466;-79
2023/12/07 07:22:04;;;;;;;;;10.00;9.67;;;;;;;;5079611;28;45976;-80
2023/12/07 07:24:29;;;;;;;;;16.00;12.67;;;;;;;;5078468;28;45897;-76
2023/12/07 07:26:55;;;;;;;;;15.33;14.33;;;;;;;;5078673;28;45265;-78
2023/12/07 07:29:20;;;;;;;;;17.00;16.00;;;;;;;;5080086;28;45306;-77
2023/12/07 07:31:45;;;;;;;;;14.00;12.33;;;;;;;;5081018;28;46310;-76
2023/12/07 07:34:10;;;;;;;;;13.33;11.00;;;;;;;;5081548;28;45220;-78
2023/12/07 07:36:35;;;;;;;;;14.00;14.00;;;;;;;;5079907;28;45620;-77
2023/12/07 07:39:00;;;;;;;;;16.33;16.00;;;;;;;;5079672;28;45437;-76
2023/12/07 07:41:26;;;;;;;;;21.00;18.33;;;;;;;;5078780;28;45530;-77
2023/12/07 07:43:51;;;;;;;;;19.67;19.67;;;;;;;;5082905;28;45442;-78
2023/12/07 07:46:16;;;;;;;;;22.00;18.67;;;;;;;;5084394;28;45542;-78
2023/12/07 07:48:41;;;;;;;;;18.00;15.33;;;;;;;;5078944;28;45440;-76
2023/12/07 07:51:06;;;;;;;;;17.33;14.67;;;;;;;;5079464;28;45295;-77
2023/12/07 07:53:31;;;;;;;;;20.33;18.33;;;;;;;;5077830;28;45366;-77
2023/12/07 07:55:57;;;;;;;;;27.33;21.67;;;;;;;;5063979;28;45374;-76
2023/12/07 07:58:22;;;;;;;;;23.33;19.67;;;;;;;;5068507;28;47241;-76
2023/12/07 08:00:48;;;;;;;;;21.33;21.00;;;;;;;;5078855;28;45379;-78
2023/12/07 08:03:13;;;;;;;;;11.33;10.00;;;;;;;;5081734;28;45246;-78
2023/12/07 08:05:38;;;;;;;;;17.33;17.00;;;;;;;;5078998;27;45399;-77
2023/12/07 08:08:03;;;;;;;;;17.00;15.00;;;;;;;;5080537;28;45558;-78
2023/12/07 08:10:28;;;;;;;;;18.67;18.67;;;;;;;;5080002;28;45380;-78
2023/12/07 08:12:53;;;;;;;;;17.67;15.33;;;;;;;;5075540;28;45501;-76
2023/12/07 08:15:20;;;;;;;;;15.33;15.33;;;;;;;;5078439;28;45680;-76
2023/12/07 08:17:45;;;;;;;;;17.00;13.67;;;;;;;;5060152;28;46592;-76
2023/12/07 08:20:11;;;;;;;;;15.33;15.33;;;;;;;;5077089;28;47412;-77
2023/12/07 08:22:37;;;;;;;;;12.33;11.67;;;;;;;;5080392;28;46323;-76
2023/12/07 08:25:02;;;;;;;;;16.00;14.00;;;;;;;;5064179;28;45430;-77
2023/12/07 08:27:27;;;;;;;;;15.67;14.00;;;;;;;;5069682;28;45868;-78
2023/12/07 08:29:53;;;;;;;;;15.33;14.00;;;;;;;;5090154;28;46534;-77
2023/12/07 08:32:19;;;;;;;;;11.33;11.33;;;;;;;;5066063;28;45453;-77
2023/12/07 08:34:44;;;;;;;;;17.00;12.00;;;;;;;;5084335;28;45334;-79
2023/12/07 08:37:09;;;;;;;;;16.00;16.00;;;;;;;;5086734;28;46502;-75
2023/12/07 08:39:34;;;;;;;;;14.67;14.00;;;;;;;;5087164;28;46180;-77
2023/12/07 08:42:00;;;;;;;;;16.33;16.33;;;;;;;;5063872;28;45439;-77
2023/12/07 08:44:26;;;;;;;;;16.33;14.67;;;;;;;;5082870;28;45406;-77
2023/12/07 08:46:51;;;;;;;;;20.33;17.33;;;;;;;;5064022;28;46050;-76
2023/12/07 08:49:16;;;;;;;;;15.00;9.67;;;;;;;;5081989;28;45370;-78
2023/12/07 08:51:41;;;;;;;;;12.00;11.00;;;;;;;;5078774;28;45282;-76
2023/12/07 08:54:06;;;;;;;;;17.33;14.33;;;;;;;;5083034;28;45260;-76
2023/12/07 08:56:31;;;;;;;;;12.00;11.00;;;;;;;;5082177;28;45337;-76
2023/12/07 08:58:57;;;;;;;;;13.33;13.33;;;;;;;;5063006;28;48237;-77
2023/12/07 09:01:22;;;;;;;;;15.00;15.00;;;;;;;;5084530;28;45351;-77
2023/12/07 09:03:47;;;;;;;;;13.67;13.67;;;;;;;;5082192;28;45360;-76
2023/12/07 09:06:12;;;;;;;;;4.00;3.33;;;;;;;;5081723;28;45972;-76
2023/12/07 09:08:38;;;;;;;;;12.67;12.67;;;;;;;;5084784;28;45326;-78
2023/12/07 09:11:04;;;;;;;;;14.33;12.00;;;;;;;;5064815;28;45384;-78
2023/12/07 09:13:29;;;;;;;;;17.00;15.67;;;;;;;;5082320;28;45370;-77
2023/12/07 09:15:54;;;;;;;;;10.67;10.33;;;;;;;;5082224;28;45372;-77
2023/12/07 09:18:19;;;;;;;;;14.67;14.67;;;;;;;;5081477;28;45407;-76
2023/12/07 09:20:47;;;;;;;;;18.33;16.00;;;;;;;;5087604;28;45378;-77
2023/12/07 09:23:14;;;;;;;;;11.33;11.33;;;;;;;;5068217;28;45344;-78
2023/12/07 09:25:40;;;;;;;;;12.00;12.00;;;;;;;;5064178;28;46340;-78
2023/12/07 09:28:05;;;;;;;;;14.00;14.00;;;;;;;;5064638;28;47192;-77
2023/12/07 09:30:33;;;;;;;;;17.00;16.33;;;;;;;;5083708;28;45300;-76
2023/12/07 09:32:58;;;;;;;;;16.67;15.00;;;;;;;;5082605;28;45298;-78
2023/12/07 09:35:23;;;;;;;;;15.00;12.00;;;;;;;;5078642;28;45579;-78
2023/12/07 09:37:48;;;;;;;;;14.67;13.67;;;;;;;;5070289;28;45484;-77
2023/12/07 09:40:15;;;;;;;;;16.67;15.00;;;;;;;;5080850;28;45417;-78
2023/12/07 09:42:42;;;;;;;;;11.33;11.00;;;;;;;;5080452;28;45628;-79
2023/12/07 09:45:08;;;;;;;;;8.67;8.67;;;;;;;;5080680;28;45616;-79
2023/12/07 09:47:33;;;;;;;;;13.67;12.33;;;;;;;;5062396;28;47175;-78
2023/12/07 09:49:59;;;;;;;;;13.67;12.00;;;;;;;;5080388;28;45403;-78
2023/12/07 09:52:24;;;;;;;;;14.00;11.67;;;;;;;;5081794;28;45469;-78
2023/12/07 09:54:50;;;;;;;;;13.33;13.33;;;;;;;;5065719;28;46181;-77
2023/12/07 09:57:15;;;;;;;;;11.00;11.00;;;;;;;;5063832;28;48272;-76
2023/12/07 09:59:41;;;;;;;;;18.00;13.33;;;;;;;;5080720;28;45303;-77
2023/12/07 10:02:07;;;;;;;;;12.00;10.67;;;;;;;;5080615;28;45282;-77
2023/12/07 10:04:32;;;;;;;;;13.00;10.00;;;;;;;;5080721;28;45217;-77
2023/12/07 10:06:57;;;;;;;;;13.67;13.67;;;;;;;;5080402;28;46331;-78
2023/12/07 10:09:23;;;;;;;;;12.00;11.00;;;;;;;;5081327;28;45149;-78
2023/12/07 10:11:48;;;;;;;;;13.67;13.00;;;;;;;;5080776;28;45616;-77
2023/12/07 10:14:13;;;;;;;;;13.00;10.33;;;;;;;;5085505;28;45626;-78
2023/12/07 10:16:51;;;;;;;;;12.00;12.00;;;;;;;;5080489;28;46011;-79
2023/12/07 10:19:21;;;;;;;;;12.33;12.33;;;;;;;;5062994;28;45898;-78
2023/12/07 10:21:50;;;;;;;;;10.00;9.67;;;;;;;;5081253;28;45345;-79
2023/12/07 10:24:15;;;;;;;;;12.00;12.00;;;;;;;;5082139;28;45383;-78
2023/12/07 10:26:41;;;;;;;;;10.67;10.67;;;;;;;;5084636;28;45286;-78
2023/12/07 10:29:06;;;;;;;;;11.67;10.33;;;;;;;;5085386;28;45323;-78
2023/12/07 10:31:32;;;;;;;;;11.67;10.67;;;;;;;;5082563;28;45482;-78
2023/12/07 10:33:58;;;;;;;;;11.33;10.00;;;;;;;;5081164;28;45532;-77
2023/12/07 10:36:23;;;;;;;;;14.67;13.67;;;;;;;;5080171;28;45464;-77
2023/12/07 10:38:50;;;;;;;;;12.00;11.00;;;;;;;;5079548;28;45509;-78
2023/12/07 10:41:17;;;;;;;;;7.67;5.00;;;;;;;;5080349;28;45338;-77
2023/12/07 10:43:44;;;;;;;;;14.67;12.33;;;;;;;;5081297;28;45479;-78
2023/12/07 10:46:12;;;;;;;;;12.67;12.67;;;;;;;;5081046;28;45150;-77
2023/12/07 10:48:38;;;;;;;;;11.00;10.00;;;;;;;;5080149;28;45404;-77
2023/12/07 10:51:08;;;;;;;;;13.00;11.00;;;;;;;;5080560;28;45315;-75
2023/12/07 10:53:40;;;;;;;;;12.33;10.33;;;;;;;;5062507;28;46192;-78
2023/12/07 10:56:09;;;;;;;;;9.33;9.00;;;;;;;;5081921;28;45432;-77
2023/12/07 10:58:35;;;;;;;;;11.67;11.33;;;;;;;;5081049;28;45406;-77
2023/12/07 11:01:01;;;;;;;;;12.00;10.67;;;;;;;;5083892;28;45411;-77
2023/12/07 11:03:29;;;;;;;;;9.67;7.67;;;;;;;;5083458;28;45493;-78
2023/12/07 11:05:54;;;;;;;;;8.33;8.33;;;;;;;;5087531;28;45394;-76
2023/12/07 11:08:19;;;;;;;;;10.00;10.00;;;;;;;;5083007;28;45390;-78
2023/12/07 11:10:53;;;;;;;;;12.25;11.25;;;;;;;;5080040;28;45402;-77
2023/12/07 11:13:24;;;;;;;;;9.33;7.67;;;;;;;;5081528;28;45467;-78
2023/12/07 11:15:49;;;;;;;;;9.33;8.33;;;;;;;;5060707;28;48880;-77
2023/12/07 11:18:14;;;;;;;;;9.33;9.33;;;;;;;;5080447;28;45271;-78
2023/12/07 11:20:49;;;;;;;;;8.33;8.33;;;;;;;;5064208;28;45307;-78
2023/12/07 11:23:18;;;;;;;;;9.00;9.00;;;;;;;;5080765;28;46092;-77
2023/12/07 11:25:44;;;;;;;;;13.00;13.00;;;;;;;;5061452;28;47289;-78
2023/12/07 11:28:10;;;;;;;;;7.33;7.33;;;;;;;;5081880;28;45392;-76
2023/12/07 11:30:36;;;;;;;;;6.00;5.00;;;;;;;;5081629;28;45511;-77
2023/12/07 11:33:05;;;;;;;;;7.33;6.33;;;;;;;;5081895;28;45327;-77
2023/12/07 11:35:30;;;;;;;;;7.33;7.00;;;;;;;;5082235;28;46167;-78
2023/12/07 11:38:11;;;;;;;;;11.33;8.00;;;;;;;;5060894;28;45378;-76
2023/12/07 11:40:43;;;;;;;;;6.33;5.00;;;;;;;;5075784;28;45489;-77
2023/12/07 11:43:16;;;;;;;;;10.33;7.00;;;;;;;;5079483;28;45398;-77
2023/12/07 11:45:46;;;;;;;;;6.67;6.33;;;;;;;;5076975;28;45599;-79
2023/12/07 11:48:12;;;;;;;;;3.00;3.00;;;;;;;;5079395;28;45387;-77
2023/12/07 11:50:53;;;;;;;;;9.33;5.00;;;;;;;;5078587;28;45415;-77
2023/12/07 11:53:20;;;;;;;;;5.00;5.00;;;;;;;;5076846;28;45622;-77
2023/12/07 11:55:45;;;;;;;;;6.67;6.67;;;;;;;;5078118;28;45408;-76
2023/12/07 11:58:12;;;;;;;;;12.00;10.00;;;;;;;;5079809;28;45318;-78
2023/12/07 12:00:37;;;;;;;;;7.67;7.00;;;;;;;;5083328;27;45501;-79
2023/12/07 12:03:02;;;;;;;;;10.67;10.00;;;;;;;;5060291;28;46150;-77
2023/12/07 12:05:28;;;;;;;;;12.00;10.00;;;;;;;;5079420;28;45345;-77
2023/12/07 12:07:53;;;;;;;;;7.67;6.00;;;;;;;;5079120;28;45263;-77
2023/12/07 12:10:19;;;;;;;;;8.33;8.33;;;;;;;;5078862;28;45323;-77
2023/12/07 12:12:44;;;;;;;;;12.67;11.67;;;;;;;;5074582;28;45249;-77
2023/12/07 12:15:10;;;;;;;;;11.00;8.33;;;;;;;;5069026;28;45525;-77
2023/12/07 12:17:35;;;;;;;;;11.00;10.00;;;;;;;;5060682;28;45317;-77
2023/12/07 12:20:00;;;;;;;;;7.00;7.00;;;;;;;;5077543;28;45452;-78
2023/12/07 12:22:25;;;;;;;;;9.67;7.67;;;;;;;;5081032;28;45470;-79
2023/12/07 12:24:51;;;;;;;;;8.33;6.67;;;;;;;;5077553;27;47182;-78
2023/12/07 12:27:16;;;;;;;;;8.00;7.00;;;;;;;;5078004;28;45433;-77
2023/12/07 12:29:42;;;;;;;;;6.33;6.33;;;;;;;;5080903;27;45264;-78
2023/12/07 12:32:08;;;;;;;;;7.00;7.00;;;;;;;;5078229;28;45471;-77
2023/12/07 12:34:33;;;;;;;;;5.00;5.00;;;;;;;;5078408;28;45347;-77
2023/12/07 12:36:59;;;;;;;;;7.33;5.33;;;;;;;;5077500;28;45306;-77
2023/12/07 12:39:30;;;;;;;;;7.67;7.33;;;;;;;;5078931;28;45659;-77
2023/12/07 12:41:55;;;;;;;;;7.00;7.00;;;;;;;;5079075;27;45805;-79
2023/12/07 12:44:21;;;;;;;;;11.00;10.00;;;;;;;;5078283;28;45288;-76
2023/12/07 12:46:46;;;;;;;;;8.00;8.00;;;;;;;;5078676;28;45287;-79
2023/12/07 12:49:11;;;;;;;;;11.33;7.00;;;;;;;;5078196;28;46357;-76
2023/12/07 12:51:37;;;;;;;;;5.00;5.00;;;;;;;;5076997;28;47461;-77
2023/12/07 12:54:03;;;;;;;;;8.00;7.00;;;;;;;;5060206;28;48239;-79
2023/12/07 12:56:28;;;;;;;;;9.33;9.33;;;;;;;;5078700;28;45274;-78
2023/12/07 12:58:56;;;;;;;;;7.67;7.33;;;;;;;;5079363;27;45259;-76
2023/12/07 13:01:21;;;;;;;;;7.33;7.33;;;;;;;;5095108;27;47146;-78
2023/12/07 13:03:47;;;;;;;;;6.00;5.00;;;;;;;;5078770;27;45388;-77
2023/12/07 13:06:16;;;;;;;;;7.67;7.67;;;;;;;;5079021;27;45279;-76
2023/12/07 13:08:43;;;;;;;;;10.33;6.67;;;;;;;;5078584;27;45208;-77
2023/12/07 13:11:08;;;;;;;;;10.33;9.67;;;;;;;;5062273;28;46310;-77
2023/12/07 13:13:33;;;;;;;;;8.67;8.33;;;;;;;;5081907;28;45840;-77
2023/12/07 13:15:59;;;;;;;;;7.00;5.00;;;;;;;;5082110;28;45476;-77
2023/12/07 13:18:24;;;;;;;;;7.67;6.67;;;;;;;;5063293;28;45552;-78
2023/12/07 13:20:49;;;;;;;;;7.67;7.00;;;;;;;;5082602;27;45750;-76
2023/12/07 13:23:14;;;;;;;;;5.00;4.00;;;;;;;;5056795;28;48082;-76
2023/12/07 13:25:41;;;;;;;;;31.67;31.67;;;;;;;;5076905;28;45311;-78
2023/12/07 13:28:06;;;;;;;;;5.33;4.67;;;;;;;;5062475;28;45468;-78
2023/12/07 13:30:35;;;;;;;;;5.67;5.67;;;;;;;;5063212;28;46205;-77
2023/12/07 13:33:00;;;;;;;;;4.00;4.00;;;;;;;;5081222;28;45276;-79
2023/12/07 13:35:25;;;;;;;;;6.00;6.00;;;;;;;;5076720;28;45182;-79
2023/12/07 13:37:50;;;;;;;;;7.00;7.00;;;;;;;;5077470;28;45469;-80
2023/12/07 13:40:15;;;;;;;;;4.00;4.00;;;;;;;;5080566;28;46838;-79
2023/12/07 13:42:42;;;;;;;;;6.00;6.00;;;;;;;;5080485;28;45346;-79
2023/12/07 13:45:08;;;;;;;;;6.67;6.67;;;;;;;;5081867;27;45291;-79
2023/12/07 13:47:36;;;;;;;;;6.00;6.00;;;;;;;;5090366;27;45609;-79
2023/12/07 13:50:03;;;;;;;;;8.33;7.33;;;;;;;;5091334;27;46130;-78
2023/12/07 13:52:28;;;;;;;;;7.00;7.00;;;;;;;;5063913;28;47607;-79
2023/12/07 13:54:54;;;;;;;;;6.33;6.33;;;;;;;;5080176;27;45360;-78
2023/12/07 13:57:20;;;;;;;;;7.67;7.67;;;;;;;;5091344;27;45772;-83
2023/12/07 13:59:45;;;;;;;;;6.33;4.67;;;;;;;;5081766;27;45263;-83
2023/12/07 14:02:10;;;;;;;;;4.00;4.00;;;;;;;;5062308;28;47234;-82
2023/12/07 14:04:36;;;;;;;;;6.67;5.00;;;;;;;;5080071;28;45319;-82
2023/12/07 14:07:27;;;;;;;;;6.00;5.00;;;;;;;;5081684;28;45261;-82
2023/12/07 14:09:52;;;;;;;;;5.00;5.00;;;;;;;;5057298;28;45314;-82
2023/12/07 14:12:18;;;;;;;;;6.00;6.00;;;;;;;;5075468;28;45659;-83
2023/12/07 14:14:44;;;;;;;;;6.00;6.00;;;;;;;;5079982;28;45450;-84
2023/12/07 14:17:12;;;;;;;;;5.00;5.00;;;;;;;;5080286;28;45343;-84
2023/12/07 14:19:38;;;;;;;;;5.00;5.00;;;;;;;;5079026;27;45373;-83
2023/12/07 14:22:03;;;;;;;;;6.67;6.67;;;;;;;;5080606;28;45329;-83
2023/12/07 14:24:30;;;;;;;;;4.00;4.00;;;;;;;;5084583;28;45295;-83
2023/12/07 14:26:56;;;;;;;;;5.00;4.33;;;;;;;;5084054;28;45336;-83